Pagrindinis puslapis
METAR-TAF:

METAR-TAF

Oro uostai :

Širazas, Iranas

platuma: 29-32N, ilguma: 052-35E, Aukštis: 1486 m

Dabartinis oras

Ataskaita buvo paskelbta 27 minutes, ne 10:00 UTC
Ramus vėjas
Temperatūra 29°C
Drėgmė 8%
Slėgis 1024 hPa
Matomumas 10 km arba daugiau
Mažai debesys ne aukštis 4000 ft, aukštai iškilę kamuoliniai debesys.

METAR: OISS 141000Z 00000KT 9999 FEW040TCU 29/M08 Q1024 A3025

Laikas: 13:57 (10:27 UTC)

Prognozė

Ataskaita buvo paskelbta 4 valandos ir 57 minutes, ne 05:30 UTC
Prognozė galioja nuo 14 metu 06 UTC su 15 metu 12 UTC
Vėjas 6 kt iš Rytų
Matomumas: 8000 m
Mažai debesys ne aukštis 4000 ft
Laikinai
nuo 14 metu 09 UTC su 14 metu 15 UTC
Vėjas 12 kt iš Pietų/Pietvakarių
Mažai debesys ne aukštis 3500 ft, Liūtiniai kamuoliniai debesys.
Išsisklaidę debesys ne aukštis 4000 ft
Išsisklaidę debesys ne aukštis 10000 ft

TAF: OISS 140530Z 1406/1512 10006KT 8000 FEW040 TEMPO 1409/1415 20012KT FEW035CB SCT040 SCT100

Orai ataskaitas ir orų prognozės (METAR, TAF).

turimą stotys yra geltonos ir raudonos taškus žemėlapyje.

Perkelti pele per norėdami pamatyti stoties vardą.

Tada spustelėkite, norėdami matyti oro stebėjimo ir prognozės.

Norėdami pakeisti žemėlapį: spustelėkite ant žalios mygtukų su juodo kryžiaus žemyn,; žalią mygtuką su brūkšneliu, jei norite nutolinti; arba žalių rodyklių gretimoms žemėlapius.


METAR-TAF: